Flight Track Log - Related Links

Times and Time Zones

All times are in EDT time to prevent confusion due to time zone crossing. See the DAL268 flight status page for this flight to view local times or setup timezone preferences in your user account.

Time Position Orientation Groundspeed Altitude Reporting Facility
EDT Latitude Longitude Course Direction KTS MPH feet Rate Location/Type
Tue 02:52:22 PM 37.6244 -122.3690 90° East 162 186 300  Level FlightAware ADS-B
Tue 02:52:42 PM 37.6365 -122.3600 30° Northeast 161 185 1,200 2,500 Climbing FlightAware ADS-B
Tue 02:52:46 PM 37.6390 -122.3570 44° Northeast 163 188 1,300 1,636 Climbing FlightAware ADS-B
Tue 02:52:53 PM 37.6425 -122.3520 49° Northeast 169 194 1,500 2,087 Climbing FlightAware ADS-B
Tue 02:53:09 PM 37.6511 -122.3400 48° Northeast 176 203 2,100 2,400 Climbing FlightAware ADS-B
Tue 02:53:18 PM 37.6557 -122.3330 50° Northeast 178 205 2,500 2,077 Climbing FlightAware ADS-B
Tue 02:53:35 PM 37.6653 -122.3190 49° Northeast 191 220 3,000 1,742 Climbing FlightAware ADS-B
Tue 02:53:49 PM 37.6742 -122.3060 49° Northeast 206 237 3,400 1,800 Climbing FlightAware ADS-B
Tue 02:54:05 PM 37.6845 -122.2920 47° Northeast 222 255 3,900 1,688 Climbing FlightAware ADS-B
Tue 02:54:21 PM 37.6968 -122.2750 48° Northeast 237 273 4,300 1,688 Climbing FlightAware ADS-B
Tue 02:54:37 PM 37.7088 -122.2580 48° Northeast 258 297 4,800 2,516 Climbing FlightAware ADS-B
Tue 02:54:52 PM 37.7210 -122.2400 49° Northeast 262 302 5,600 2,923 Climbing FlightAware ADS-B
Tue 02:55:16 PM 37.7403 -122.2120 49° Northeast 268 308 6,700 3,077 Climbing FlightAware ADS-B
Tue 02:55:31 PM 37.7534 -122.1930 49° Northeast 273 314 7,600 3,111 Climbing FlightAware ADS-B
Tue 02:55:43 PM 37.7627 -122.1790 50° Northeast 276 318 8,100 2,571 Climbing FlightAware ADS-B
Tue 02:55:52 PM 37.7682 -122.1670 60° Northeast 280 322 8,500 2,571 Climbing FlightAware ADS-B
Tue 02:55:57 PM 37.7709 -122.1590 67° East 283 326 8,700 2,667 Climbing FlightAware ADS-B
Tue 02:56:01 PM 37.7727 -122.1530 69° East 284 327 8,900 2,700 Climbing FlightAware ADS-B
Tue 02:56:17 PM 37.7801 -122.1270 70° East 289 333 9,600 1,787 Climbing FlightAware ADS-B
Tue 02:56:48 PM 37.7944 -122.0760 70° East 319 367 10,300 1,048 Climbing FlightAware ADS-B
Tue 02:57:20 PM 37.8115 -122.0150 70° East 362 417 10,700 1,313 Climbing FlightAware ADS-B
Tue 02:57:52 PM 37.8298 -121.9470 71° East 382 440 11,700 2,000 Climbing FlightAware ADS-B
Tue 02:58:23 PM 37.8473 -121.8800 72° East 395 455 12,800 2,066 Climbing FlightAware ADS-B
Tue 02:58:53 PM 37.8648 -121.8130 72° East 405 466 13,800 2,066 Climbing FlightAware ADS-B
Tue 02:59:24 PM 37.8833 -121.7440 71° East 417 480 14,900 2,164 Climbing FlightAware ADS-B
Tue 02:59:54 PM 37.9017 -121.6730 72° East 424 488 16,000 2,066 Climbing FlightAware ADS-B
Tue 03:00:25 PM 37.9207 -121.6000 72° East 433 498 17,000 2,000 Climbing FlightAware ADS-B
Tue 03:00:57 PM 37.9408 -121.5230 72° East 440 506 18,100 2,000 Climbing FlightAware ADS-B
Tue 03:01:31 PM 37.9627 -121.4380 72° East 446 513 19,200 2,028 Climbing FlightAware ADS-B
Tue 03:02:08 PM 37.9866 -121.3460 72° East 449 517 20,500 2,289 Climbing FlightAware ADS-B
Tue 03:02:47 PM 38.0120 -121.2490 72° East 445 512 22,100 2,571 Climbing FlightAware ADS-B
Tue 03:03:18 PM 38.0313 -121.1730 72° East 443 510 23,500 2,571 Climbing FlightAware ADS-B
Tue 03:03:57 PM 38.0560 -121.0780 72° East 435 501 25,100 1,750 Climbing FlightAware ADS-B
Tue 03:04:30 PM 38.0760 -120.9990 72° East 449 517 25,600 771 Climbing FlightAware ADS-B
Tue 03:05:07 PM 38.1000 -120.9020 73° East 470 541 26,000 575 Climbing FlightAware ADS-B
Tue 03:05:43 PM 38.1230 -120.8040 73° East 487 560 26,300 706 Climbing FlightAware ADS-B
Tue 03:06:15 PM 38.1440 -120.7160 73° East 498 573 26,800 1,059 Climbing FlightAware ADS-B
Tue 03:06:51 PM 38.1690 -120.6130 73° East 503 579 27,500 1,333 Climbing FlightAware ADS-B
Tue 03:07:27 PM 38.1930 -120.5120 73° East 502 578 28,400 1,478 Climbing FlightAware ADS-B
Tue 03:08:00 PM 38.2140 -120.4210 74° East 500 575 29,200 1,412 Climbing FlightAware ADS-B
Tue 03:08:35 PM 38.2360 -120.3300 73° East 501 577 30,000 1,440 Climbing FlightAware ADS-B
Tue 03:08:50 PM 38.2474 -120.2808 74° East 501 577 30,400 1,627 Climbing FlightAware ADS-B
Tue 03:09:34 PM 38.2637 -120.2113 73° East 494 568 31,600 1,267 Climbing FlightAware ADS-B
Tue 03:10:20 PM 38.3060 -120.0310 73° East 499 574 32,300 878 Climbing FlightAware ADS-B
Tue 03:10:56 PM 38.3300 -119.9270 74° East 505 581 32,800 686 Climbing FlightAware ADS-B
Tue 03:11:30 PM 38.3460 -119.8570 74° East 508 585 33,100 750 Climbing FlightAware ADS-B
Tue 03:11:52 PM 38.3680 -119.7635 73° East 514 592 33,500 761 Climbing FlightAware ADS-B
Tue 03:12:41 PM 38.4000 -119.6230 74° East 524 603 34,000 600 Climbing FlightAware ADS-B
Tue 03:12:52 PM 38.4077 -119.5906 73° East 526 605 34,100 1,038 Climbing FlightAware ADS-B
Tue 03:13:33 PM 38.4359 -119.4670 74° East 525 604 34,900 1,259 Climbing FlightAware ADS-B
Tue 03:14:13 PM 38.4623 -119.3502 74° East 513 590 35,800 1,114 Climbing FlightAware ADS-B
Tue 03:14:43 PM 38.4821 -119.2622 74° East 512 589 36,200 700 Climbing FlightAware ADS-B
Tue 03:15:13 PM 38.4997 -119.1754 75° East 511 588 36,500 581 Climbing FlightAware ADS-B
Tue 03:15:45 PM 38.5123 -119.0819 80° East 512 589 36,800 484 Climbing FlightAware ADS-B
Tue 03:16:15 PM 38.5220 -118.9896 82° East 513 590 37,000 158 Climbing FlightAware ADS-B
Tue 03:17:01 PM 38.5356 -118.8511 83° East 517 595 37,000  Level FlightAware ADS-B
Tue 03:17:50 PM 38.5490 -118.7090 83° East 521 600 37,000  Level FlightAware ADS-B
Tue 03:18:23 PM 38.5600 -118.6020 82° East 524 603 37,000  Level FlightAware ADS-B
Tue 03:18:59 PM 38.5710 -118.4900 83° East 528 608 37,000  Level FlightAware ADS-B
Tue 03:19:31 PM 38.5800 -118.3920 83° East 530 610 37,000  Level FlightAware ADS-B
Tue 03:20:06 PM 38.5990 -118.2840 77° East 530 610 37,000  Level FlightAware ADS-B
Tue 03:20:45 PM 38.6110 -118.1600 83° East 531 611 37,000  Level FlightAware ADS-B
Tue 03:21:14 PM 38.6190 -118.0680 84° East 530 610 37,000  Level FlightAware ADS-B
Tue 03:22:00 PM 38.6310 -117.9410 83° East 530 610 37,000  Level FlightAware ADS-B
Tue 03:22:35 PM 38.6400 -117.8480 83° East 530 610 37,000  Level FlightAware ADS-B
Tue 03:23:12 PM 38.6500 -117.7500 83° East 530 610 37,000  Level FlightAware ADS-B
Tue 03:23:48 PM 38.6590 -117.6550 83° East 530 610 37,000  Level FlightAware ADS-B
Tue 03:24:36 PM 38.6710 -117.5280 83° East 530 610 37,000  Level FlightAware ADS-B
Tue 03:25:00 PM 38.6770 -117.4640 83° East 530 610 37,000  Level FlightAware ADS-B
Tue 03:25:36 PM 38.6860 -117.3690 83° East 530 610 37,000  Level FlightAware ADS-B
Tue 03:26:12 PM 38.6950 -117.2730 83° East 530 610 37,000  Level FlightAware ADS-B
Tue 03:26:48 PM 38.7040 -117.1780 83° East 530 610 37,000  Level FlightAware ADS-B
Tue 03:27:24 PM 38.7130 -117.0820 83° East 530 610 37,000  Level FlightAware ADS-B
Tue 03:28:01 PM 38.7230 -116.9840 83° East 530 610 37,000  Level FlightAware ADS-B
Tue 03:28:37 PM 38.7320 -116.8890 83° East 530 610 37,000  Level FlightAware ADS-B
Tue 03:29:13 PM 38.7410 -116.7930 83° East 530 610 37,000  Level FlightAware ADS-B
Tue 03:29:49 PM 38.7500 -116.6980 83° East 530 610 37,000  Level FlightAware ADS-B
Tue 03:30:24 PM 38.7590 -116.6050 83° East 530 610 37,000  Level FlightAware ADS-B
Tue 03:31:01 PM 38.7680 -116.5070 83° East 530 610 37,000  Level FlightAware ADS-B
Tue 03:32:04 PM 38.9053 -116.0900 83° East 540 621 37,000  Level Salt Lake Center
Tue 03:33:05 PM 38.9578 -115.9092 69° East 540 621 37,000  Level Salt Lake Center
Tue 03:34:07 PM 39.0092 -115.7281 70° East 539 620 37,000  Level Salt Lake Center
Tue 03:35:09 PM 39.0617 -115.5464 70° East 541 623 37,000  Level Salt Lake Center
Tue 03:36:10 PM 39.1097 -115.3717 70° East 535 616 37,000  Level Salt Lake Center
Tue 03:37:12 PM 39.1672 -115.1719 70° East 540 621 37,000  Level Salt Lake Center
Tue 03:38:14 PM 39.2222 -114.9725 70° East 532 612 37,000  Level Salt Lake Center
Tue 03:39:15 PM 39.2697 -114.8008 70° East 532 612 37,000  Level Salt Lake Center
Tue 03:44:55 PM 39.5541 -113.7533 70° East 536 617 37,000  Level FlightAware ADS-B
Tue 03:45:49 PM 39.5976 -113.5888 71° East 538 619 37,000  Level FlightAware ADS-B
Tue 03:46:33 PM 39.6330 -113.4560 71° East 537 618 37,000  Level FlightAware ADS-B
Tue 03:46:51 PM 39.6464 -113.4027 72° East 537 618 37,000  Level FlightAware ADS-B
Tue 03:46:55 PM 39.6503 -113.3880 71° East 537 618 37,000  Level FlightAware ADS-B
Tue 03:47:22 PM 39.6697 -113.3133 71° East 538 619 37,000  Level FlightAware ADS-B
Tue 03:47:27 PM 39.6758 -113.2900 71° East 538 619 37,000  Level FlightAware ADS-B
Tue 03:47:54 PM 39.6951 -113.2155 71° East 537 618 37,000  Level FlightAware ADS-B
Tue 03:47:57 PM 39.6999 -113.1970 72° East 537 618 37,000  Level FlightAware ADS-B
Tue 03:48:27 PM 39.7236 -113.1060 71° East 536 617 37,000  Level FlightAware ADS-B
Tue 03:48:33 PM 39.7278 -113.0891 72° East 536 617 37,000  Level FlightAware ADS-B
Tue 03:48:58 PM 39.7471 -113.0140 72° East 534 615 37,000  Level FlightAware ADS-B
Tue 03:49:15 PM 39.7601 -112.9635 71° East 535 616 37,000  Level FlightAware ADS-B
Tue 03:49:34 PM 39.7755 -112.9040 71° East 535 616 37,000  Level FlightAware ADS-B
Tue 03:49:57 PM 39.7928 -112.8359 72° East 536 617 37,000  Level FlightAware ADS-B
Tue 03:50:04 PM 39.7990 -112.8110 72° East 536 617 37,000  Level FlightAware ADS-B
Tue 03:50:29 PM 39.8172 -112.7398 72° East 536 617 37,000  Level FlightAware ADS-B
Tue 03:50:35 PM 39.8231 -112.7170 71° East 536 617 37,000  Level FlightAware ADS-B
Tue 03:51:06 PM 39.8469 -112.6220 72° East 536 617 37,000  Level FlightAware ADS-B
Tue 03:51:07 PM 39.8466 -112.6234 255° West 536 617 37,000  Level FlightAware ADS-B
Tue 03:51:36 PM 39.8701 -112.5290 72° East 535 616 37,000  Level FlightAware ADS-B
Tue 03:52:07 PM 39.8930 -112.4380 72° East 533 613 37,000  Level FlightAware ADS-B
Tue 03:52:28 PM 39.9091 -112.3732 72° East 532 612 37,000  Level FlightAware ADS-B
Tue 03:52:37 PM 39.9164 -112.3440 72° East 532 612 37,000  Level FlightAware ADS-B
Tue 03:53:08 PM 39.9391 -112.2520 72° East 532 612 37,000  Level FlightAware ADS-B
Tue 03:53:19 PM 39.9477 -112.2176 72° East 532 612 37,000  Level FlightAware ADS-B
Tue 03:53:38 PM 39.9618 -112.1600 72° East 533 613 37,000  Level FlightAware ADS-B
Tue 03:54:08 PM 39.9846 -112.0680 72° East 533 613 37,000  Level FlightAware ADS-B
Tue 03:54:38 PM 40.0072 -111.9750 72° East 534 615 37,000  Level FlightAware ADS-B
Tue 03:55:09 PM 40.0300 -111.8820 72° East 533 613 37,000  Level FlightAware ADS-B
Tue 03:55:17 PM 40.0347 -111.8626 72° East 533 613 37,000  Level FlightAware ADS-B
Tue 03:55:39 PM 40.0524 -111.7900 72° East 532 612 37,000  Level FlightAware ADS-B
Tue 03:56:09 PM 40.0749 -111.6970 72° East 532 612 37,000  Level FlightAware ADS-B
Tue 03:56:40 PM 40.0969 -111.6050 73° East 531 611 37,000  Level FlightAware ADS-B
Tue 03:56:50 PM 40.1039 -111.5763 72° East 531 611 37,000  Level FlightAware ADS-B
Tue 03:57:10 PM 40.1190 -111.5130 73° East 530 610 37,000  Level FlightAware ADS-B
Tue 03:57:40 PM 40.1410 -111.4210 73° East 530 610 37,000  Level FlightAware ADS-B
Tue 03:58:10 PM 40.1628 -111.3301 73° East 529 609 37,000  Level FlightAware ADS-B
Tue 03:58:41 PM 40.1854 -111.2350 73° East 529 609 37,000  Level FlightAware ADS-B
Tue 03:58:49 PM 40.1911 -111.2105 73° East 529 609 37,000  Level FlightAware ADS-B
Tue 03:59:12 PM 40.2077 -111.1410 73° East 527 606 37,000  Level FlightAware ADS-B
Tue 03:59:21 PM 40.2142 -111.1129 73° East 527 606 37,000  Level FlightAware ADS-B
Tue 03:59:43 PM 40.2294 -111.0480 73° East 525 604 37,000  Level FlightAware ADS-B
Tue 03:59:51 PM 40.2356 -111.0219 73° East 525 604 37,000  Level FlightAware ADS-B
Tue 04:00:13 PM 40.2509 -110.9560 73° East 525 604 37,000  Level FlightAware ADS-B
Tue 04:00:23 PM 40.2584 -110.9244 73° East 525 604 37,000  Level FlightAware ADS-B
Tue 04:00:55 PM 40.2809 -110.8280 73° East 523 602 37,000  Level FlightAware ADS-B
Tue 04:01:07 PM 40.2889 -110.7936 73° East 523 602 37,000  Level FlightAware ADS-B
Tue 04:01:36 PM 40.3097 -110.7040 73° East 523 602 37,000  Level FlightAware ADS-B
Tue 04:01:38 PM 40.3110 -110.6983 73° East 523 602 37,000  Level FlightAware ADS-B
Tue 04:02:10 PM 40.3329 -110.6030 73° East 524 603 37,000  Level FlightAware ADS-B
Tue 04:02:23 PM 40.3416 -110.5658 73° East 525 604 37,000  Level FlightAware ADS-B
Tue 04:02:41 PM 40.3548 -110.5080 73° East 527 606 37,000  Level FlightAware ADS-B
Tue 04:02:56 PM 40.3645 -110.4657 73° East 527 606 37,000  Level FlightAware ADS-B
Tue 04:03:17 PM 40.3802 -110.3970 73° East 527 606 37,000  Level FlightAware ADS-B
Tue 04:03:30 PM 40.3894 -110.3567 73° East 527 606 37,000  Level FlightAware ADS-B
Tue 04:03:48 PM 40.4013 -110.3040 73° East 527 606 37,000  Level FlightAware ADS-B
Tue 04:04:02 PM 40.4108 -110.2627 73° East 526 605 37,000  Level FlightAware ADS-B
Tue 04:04:33 PM 40.4317 -110.1700 73° East 526 605 37,000  Level FlightAware ADS-B
Tue 04:05:04 PM 40.4536 -110.0729 73° East 523 602 37,000  Level FlightAware ADS-B
Tue 04:05:36 PM 40.4750 -109.9778 74° East 523 602 37,000  Level FlightAware ADS-B
Tue 04:06:06 PM 40.4953 -109.8868 74° East 523 602 37,000  Level FlightAware ADS-B
Tue 04:06:37 PM 40.5173 -109.7881 74° East 524 603 37,000  Level FlightAware ADS-B
Tue 04:07:26 PM 40.5500 -109.6390 74° East 523 602 37,000  Level FlightAware ADS-B
Tue 04:07:59 PM 40.5730 -109.5370 73° East 524 603 37,000  Level FlightAware ADS-B
Tue 04:08:34 PM 40.5960 -109.4330 74° East 525 604 37,000  Level FlightAware ADS-B
Tue 04:09:10 PM 40.6200 -109.3220 74° East 523 602 37,000  Level FlightAware ADS-B
Tue 04:09:42 PM 40.6410 -109.2250 74° East 521 600 37,000  Level FlightAware ADS-B
Tue 04:10:20 PM 40.6640 -109.1160 74° East 521 600 37,000  Level FlightAware ADS-B
Tue 04:10:47 PM 40.6837 -109.0250 74° East 521 600 37,000  Level FlightAware ADS-B
Tue 04:11:20 PM 40.7054 -108.9235 74° East 520 598 37,000  Level FlightAware ADS-B
Tue 04:11:51 PM 40.7247 -108.8329 74° East 520 598 37,000  Level FlightAware ADS-B
Tue 04:12:22 PM 40.7456 -108.7347 74° East 521 600 37,000  Level FlightAware ADS-B
Tue 04:12:53 PM 40.7653 -108.6412 74° East 516 594 37,000  Level FlightAware ADS-B
Tue 04:13:25 PM 40.7854 -108.5454 74° East 516 594 37,000  Level FlightAware ADS-B
Tue 04:13:55 PM 40.8042 -108.4554 75° East 518 596 37,000  Level FlightAware ADS-B
Tue 04:14:54 PM 40.8410 -108.2780 75° East 515 593 37,000  Level FlightAware ADS-B
Tue 04:15:30 PM 40.8630 -108.1690 75° East 515 593 37,000  Level FlightAware ADS-B
Tue 04:16:03 PM 40.8845 -108.0668 74° East 515 593 37,000  Level FlightAware ADS-B
Tue 04:16:36 PM 40.9040 -107.9700 75° East 512 589 37,000  Level FlightAware ADS-B
Tue 04:17:14 PM 40.9280 -107.8520 75° East 513 590 37,000  Level FlightAware ADS-B
Tue 04:17:48 PM 40.9490 -107.7510 75° East 514 592 37,000  Level FlightAware ADS-B
Tue 04:18:24 PM 40.9700 -107.6440 75° East 515 593 37,000  Level FlightAware ADS-B
Tue 04:19:00 PM 40.9930 -107.5310 75° East 513 590 37,000  Level FlightAware ADS-B
Tue 04:19:32 PM 41.0120 -107.4350 75° East 510 587 37,000  Level FlightAware ADS-B
Tue 04:20:04 PM 41.0310 -107.3390 75° East 508 585 37,000  Level FlightAware ADS-B
Tue 04:20:54 PM 41.0590 -107.2000 75° East 508 585 37,000  Level FlightAware ADS-B
Tue 04:21:30 PM 41.0770 -107.1080 75° East 508 585 37,000  Level FlightAware ADS-B
Tue 04:22:06 PM 41.0960 -107.0160 75° East 508 585 37,000  Level FlightAware ADS-B
Tue 04:22:56 PM 41.1310 -106.8260 76° East 506 582 37,000  Level FlightAware ADS-B
Tue 04:23:32 PM 41.1520 -106.7190 75° East 506 582 37,000  Level FlightAware ADS-B
Tue 04:24:20 PM 41.1780 -106.5860 75° East 509 586 37,000  Level FlightAware ADS-B
Tue 04:24:54 PM 41.1990 -106.4700 76° East 508 585 37,000  Level FlightAware ADS-B
Tue 04:25:27 PM 41.2190 -106.3660 76° East 508 585 37,000  Level FlightAware ADS-B
Tue 04:26:04 PM 41.2390 -106.2580 76° East 508 585 37,000  Level FlightAware ADS-B
Tue 04:26:38 PM 41.2580 -106.1540 76° East 509 586 37,000  Level FlightAware ADS-B
Tue 04:27:16 PM 41.2800 -106.0380 76° East 510 587 37,000  Level FlightAware ADS-B
Tue 04:27:48 PM 41.2980 -105.9400 76° East 509 586 37,000  Level FlightAware ADS-B
Tue 04:28:24 PM 41.3170 -105.8330 77° East 510 587 37,000  Level FlightAware ADS-B
Tue 04:29:00 PM 41.3400 -105.7230 74° East 512 589 37,000  Level FlightAware ADS-B
Tue 04:29:36 PM 41.3670 -105.6140 72° East 510 587 37,000  Level FlightAware ADS-B
Tue 04:30:06 PM 41.3880 -105.5260 72° East 511 588 37,000  Level FlightAware ADS-B
Tue 04:30:40 PM 41.4140 -105.4260 71° East 515 593 37,000  Level FlightAware ADS-B
Tue 04:31:22 PM 41.4460 -105.3000 71° East 515 593 37,000  Level FlightAware ADS-B
Tue 04:31:53 PM 41.4700 -105.2050 71° East 518 596 37,000  Level FlightAware ADS-B
Tue 04:32:29 PM 41.4970 -105.1000 71° East 518 596 37,000  Level FlightAware ADS-B
Tue 04:33:02 PM 41.5220 -105.0010 71° East 518 596 37,000  Level FlightAware ADS-B
Tue 04:33:39 PM 41.5510 -104.8860 71° East 517 595 37,000  Level FlightAware ADS-B
Tue 04:34:15 PM 41.5790 -104.7780 71° East 514 592 37,000  Level FlightAware ADS-B
Tue 04:34:51 PM 41.6060 -104.6670 72° East 511 588 37,000  Level FlightAware ADS-B
Tue 04:35:25 PM 41.6310 -104.5670 71° East 511 588 37,000  Level FlightAware ADS-B
Tue 04:36:01 PM 41.6580 -104.4590 71° East 511 588 37,000  Level FlightAware ADS-B
Tue 04:36:37 PM 41.6840 -104.3510 72° East 509 586 37,000  Level FlightAware ADS-B
Tue 04:37:09 PM 41.7080 -104.2560 71° East 508 585 37,000  Level FlightAware ADS-B
Tue 04:37:45 PM 41.7340 -104.1490 72° East 507 583 37,000  Level FlightAware ADS-B
Tue 04:38:17 PM 41.7570 -104.0530 72° East 508 585 37,000  Level FlightAware ADS-B
Tue 04:38:53 PM 41.7840 -103.9450 71° East 507 583 37,000  Level FlightAware ADS-B
Tue 04:39:29 PM 41.8090 -103.8410 72° East 507 583 37,000  Level FlightAware ADS-B
Tue 04:40:12 PM 41.8350 -103.7330 72° East 507 583 37,000  Level FlightAware ADS-B
Tue 04:41:01 PM 41.8730 -103.5740 72° East 507 583 37,000  Level FlightAware ADS-B
Tue 04:41:35 PM 41.8960 -103.4610 75° East 508 585 37,000  Level FlightAware ADS-B
Tue 04:42:25 PM 41.9180 -103.3170 78° East 506 582 37,000  Level FlightAware ADS-B
Tue 04:43:01 PM 41.9310 -103.2230 79° East 506 582 37,000  Level FlightAware ADS-B
Tue 04:43:37 PM 41.9450 -103.1280 79° East 506 582 37,000  Level FlightAware ADS-B
Tue 04:44:14 PM 41.9590 -103.0310 79° East 506 582 37,000  Level FlightAware ADS-B
Tue 04:44:50 PM 41.9730 -102.9370 79° East 506 582 37,000  Level FlightAware ADS-B
Tue 04:45:26 PM 41.9860 -102.8420 80° East 506 582 37,000  Level FlightAware ADS-B
Tue 04:46:03 PM 42.0000 -102.7450 79° East 506 582 37,000  Level FlightAware ADS-B
Tue 04:46:39 PM 42.0140 -102.6500 79° East 506 582 37,000  Level FlightAware ADS-B
Tue 04:47:15 PM 42.0280 -102.5550 79° East 506 582 37,000  Level FlightAware ADS-B
Tue 04:47:51 PM 42.0410 -102.4610 79° East 506 582 37,000  Level FlightAware ADS-B
Tue 04:48:29 PM 42.0560 -102.3610 79° East 506 582 37,000  Level FlightAware ADS-B
Tue 04:49:05 PM 42.0690 -102.2660 80° East 506 582 37,000  Level FlightAware ADS-B
Tue 04:49:41 PM 42.0830 -102.1710 79° East 506 582 37,000  Level FlightAware ADS-B
Tue 04:50:17 PM 42.0970 -102.0770 79° East 506 582 37,000  Level FlightAware ADS-B
Tue 04:50:53 PM 42.1100 -101.9820 80° East 506 582 37,000  Level FlightAware ADS-B
Tue 04:51:30 PM 42.1240 -101.8840 79° East 506 582 37,000  Level FlightAware ADS-B
Tue 04:52:19 PM 42.1567 -101.5164 79° East 501 577 37,000  Level Denver Center
Tue 04:53:21 PM 42.1819 -101.3075 81° East 504 580 37,000  Level Denver Center
Tue 04:54:24 PM 42.2033 -101.1311 81° East 499 574 37,000  Level Denver Center
Tue 04:55:26 PM 42.2286 -100.9242 81° East 500 575 37,000  Level Denver Center
Tue 04:56:28 PM 42.2489 -100.7472 81° East 499 574 37,000  Level Denver Center
Tue 04:57:30 PM 42.2722 -100.5383 81° East 502 578 37,000  Level Denver Center
Tue 04:58:32 PM 42.2933 -100.3578 81° East 507 583 37,000  Level Denver Center
Tue 04:59:34 PM 42.3167 -100.1492 81° East 504 580 37,000  Level Denver Center
Tue 05:00:36 PM 42.3361 -99.9700 82° East 504 580 37,000  Level Denver Center
Tue 05:01:38 PM 42.3592 -99.7625 81° East 501 577 37,000  Level Denver Center
Tue 05:02:40 PM 42.3775 -99.5875 82° East 502 578 37,000  Level Denver Center
Tue 05:03:42 PM 42.3975 -99.4006 82° East 501 577 37,000  Level Denver Center
Tue 05:04:44 PM 42.4175 -99.2108 82° East 506 582 37,000  Level Denver Center
Tue 05:05:46 PM 42.4369 -99.0197 82° East 509 586 37,000  Level Denver Center
Tue 05:06:48 PM 42.4594 -98.7914 82° East 509 586 37,000  Level Denver Center
Tue 05:08:16 PM 42.4794 -98.5261 84° East 510 587 37,000  Level Minneapolis Center
Tue 05:09:18 PM 42.4881 -98.3342 86° East 510 587 37,000  Level Minneapolis Center
Tue 05:15:19 PM 42.5380 -97.1820 86° East 498 573 37,000  Level FlightAware ADS-B
Tue 05:15:53 PM 42.5420 -97.0750 87° East 497 572 37,000  Level FlightAware ADS-B
Tue 05:16:30 PM 42.5460 -96.9610 87° East 498 573 37,000  Level FlightAware ADS-B
Tue 05:17:03 PM 42.5500 -96.8560 87° East 499 574 37,000  Level FlightAware ADS-B
Tue 05:17:39 PM 42.5540 -96.7440 87° East 499 574 37,000  Level FlightAware ADS-B
Tue 05:18:16 PM 42.5570 -96.6320 88° East 500 575 37,000  Level FlightAware ADS-B
Tue 05:18:49 PM 42.5610 -96.5270 87° East 501 577 37,000  Level FlightAware ADS-B
Tue 05:19:25 PM 42.5640 -96.4120 88° East 502 578 37,000  Level FlightAware ADS-B
Tue 05:20:00 PM 42.5680 -96.3030 87° East 504 580 37,000  Level FlightAware ADS-B
Tue 05:20:33 PM 42.5710 -96.1980 88° East 504 580 37,000  Level FlightAware ADS-B
Tue 05:21:10 PM 42.5740 -96.0840 88° East 504 580 37,000  Level FlightAware ADS-B
Tue 05:21:43 PM 42.5770 -95.9820 88° East 504 580 37,000  Level FlightAware ADS-B
Tue 05:22:20 PM 42.5800 -95.8650 88° East 503 579 37,000  Level FlightAware ADS-B
Tue 05:22:55 PM 42.5830 -95.7540 88° East 502 578 37,000  Level FlightAware ADS-B
Tue 05:23:29 PM 42.5860 -95.6430 88° East 502 578 37,000  Level FlightAware ADS-B
Tue 05:24:06 PM 42.5890 -95.5290 88° East 502 578 37,000  Level FlightAware ADS-B
Tue 05:24:38 PM 42.5910 -95.4280 88° East 503 579 37,000  Level FlightAware ADS-B
Tue 05:25:15 PM 42.5930 -95.3230 88° East 503 579 37,000  Level FlightAware ADS-B
Tue 05:25:35 PM 42.5949 -95.2485 88° East 503 579 37,000  Level FlightAware ADS-B (LPVM)
Tue 05:26:12 PM 42.5971 -95.1433 88° East 501 577 37,000  Level FlightAware ADS-B (LPVM)
Tue 05:26:44 PM 42.5993 -95.0339 88° East 498 573 37,000  Level FlightAware ADS-B (LPVM)
Tue 05:27:34 PM 42.6020 -94.8780 89° East 498 573 37,000  Level FlightAware ADS-B
Tue 05:27:56 PM 42.6034 -94.8084 88° East 498 573 37,000  Level FlightAware ADS-B (LPVM)
Tue 05:28:40 PM 42.6060 -94.6730 88° East 496 571 37,000  Level FlightAware ADS-B
Tue 05:29:19 PM 42.6080 -94.5510 89° East 495 570 37,000  Level FlightAware ADS-B
Tue 05:29:55 PM 42.6090 -94.4410 89° East 493 567 37,000  Level FlightAware ADS-B
Tue 05:30:08 PM 42.6098 -94.3981 89° East 493 567 37,000  Level FlightAware ADS-B (LPVM)
Tue 05:30:51 PM 42.6115 -94.2651 89° East 493 567 37,000  Level FlightAware ADS-B (LPVM)
Tue 05:31:32 PM 42.6126 -94.1400 89° East 494 568 37,000  Level FlightAware ADS-B (LPVM)
Tue 05:32:04 PM 42.6133 -94.0455 89° East 493 567 37,000  Level FlightAware ADS-B (LPVM)
Tue 05:32:50 PM 42.6140 -93.8990 90° East 493 567 37,000  Level FlightAware ADS-B
Tue 05:33:04 PM 42.6144 -93.8739 89° East 493 567 37,000  Level FlightAware ADS-B (LPVM)
Tue 05:33:44 PM 42.6152 -93.7327 90° East 492 566 37,000  Level FlightAware ADS-B (LPVM)
Tue 05:34:33 PM 42.6160 -93.5830 90° East 490 564 37,000  Level FlightAware ADS-B
Tue 05:35:03 PM 42.6162 -93.4928 90° East 490 564 37,000  Level FlightAware ADS-B (LPVM)
Tue 05:35:44 PM 42.6170 -93.3630 89° East 489 563 37,000  Level FlightAware ADS-B
Tue 05:36:19 PM 42.6166 -93.2554 90° East 489 563 37,000  Level FlightAware ADS-B (LPVM)
Tue 05:36:52 PM 42.6170 -93.1560 90° East 488 562 37,000  Level FlightAware ADS-B
Tue 05:37:31 PM 42.6170 -93.0380 90° East 487 560 37,000  Level FlightAware ADS-B
Tue 05:38:03 PM 42.6160 -92.9410 91° East 486 559 37,000  Level FlightAware ADS-B
Tue 05:38:38 PM 42.6160 -92.8330 90° East 486 559 37,000  Level FlightAware ADS-B
Tue 05:39:15 PM 42.6160 -92.7260 90° East 485 558 37,000  Level FlightAware ADS-B
Tue 05:39:50 PM 42.6154 -92.6234 90° East 484 557 37,000  Level FlightAware ADS-B (LPVM)
Tue 05:40:26 PM 42.6148 -92.5177 90° East 484 557 37,000  Level FlightAware ADS-B (LPVM)
Tue 05:40:56 PM 42.6142 -92.4144 90° East 484 557 37,000  Level FlightAware ADS-B (LPVM)
Tue 05:41:34 PM 42.6130 -92.2990 91° East 484 557 37,000  Level FlightAware ADS-B
Tue 05:42:10 PM 42.6130 -92.1930 90° East 483 556 37,000  Level FlightAware ADS-B
Tue 05:42:43 PM 42.6120 -92.0940 91° East 483 556 37,000  Level FlightAware ADS-B
Tue 05:43:07 PM 42.6109 -92.0177 91° East 483 556 37,000  Level FlightAware ADS-B (LPVM)
Tue 05:43:43 PM 42.6098 -91.9099 91° East 484 557 37,000  Level FlightAware ADS-B (LPVM)
Tue 05:44:15 PM 42.6086 -91.8127 91° East 484 557 37,000  Level FlightAware ADS-B (LPVM)
Tue 05:44:45 PM 42.6075 -91.7219 91° East 484 557 37,000  Level FlightAware ADS-B (LPVM)
Tue 05:45:17 PM 42.6063 -91.6263 91° East 484 557 37,000  Level FlightAware ADS-B (LPVM)
Tue 05:46:08 PM 42.6041 -91.4708 91° East 483 556 37,000  Level FlightAware ADS-B (LPVM)
Tue 05:46:49 PM 42.6020 -91.3530 91° East 482 555 37,000  Level FlightAware ADS-B
Tue 05:46:59 PM 42.6017 -91.3171 91° East 482 555 37,000  Level FlightAware ADS-B (LPVM)
Tue 05:47:38 PM 42.5998 -91.2040 91° East 480 552 37,000  Level FlightAware ADS-B (LPVM)
Tue 05:48:19 PM 42.5976 -91.0756 91° East 477 549 37,000  Level FlightAware ADS-B (LPVM)
Tue 05:48:58 PM 42.5954 -90.9609 91° East 476 548 37,000  Level FlightAware ADS-B (LPVM)
Tue 05:49:44 PM 42.5930 -90.8250 91° East 474 545 37,000  Level FlightAware ADS-B
Tue 05:50:22 PM 42.5900 -90.7150 92° East 473 544 37,000  Level FlightAware ADS-B
Tue 05:50:57 PM 42.5880 -90.6100 91° East 475 547 37,000  Level FlightAware ADS-B
Tue 05:51:31 PM 42.5860 -90.5090 92° East 478 550 37,000  Level FlightAware ADS-B
Tue 05:52:04 PM 42.5830 -90.4110 92° East 477 549 37,000  Level FlightAware ADS-B
Tue 05:52:43 PM 42.5810 -90.2940 91° East 475 547 37,000  Level FlightAware ADS-B
Tue 05:53:14 PM 42.5780 -90.2030 93° East 474 545 37,000  Level FlightAware ADS-B
Tue 05:53:46 PM 42.5760 -90.1090 92° East 473 544 37,000  Level FlightAware ADS-B
Tue 05:54:25 PM 42.5730 -89.9950 92° East 473 544 37,000  Level FlightAware ADS-B
Tue 05:55:02 PM 42.5700 -89.8850 92° East 472 543 37,000  Level FlightAware ADS-B
Tue 05:55:32 PM 42.5670 -89.7940 93° East 471 542 37,000  Level FlightAware ADS-B
Tue 05:56:10 PM 42.5640 -89.6810 92° East 469 540 37,000  Level FlightAware ADS-B
Tue 05:56:54 PM 42.5600 -89.5530 92° East 468 539 37,000  Level FlightAware ADS-B
Tue 05:57:26 PM 42.5570 -89.4640 93° East 468 539 37,000  Level FlightAware ADS-B
Tue 05:58:03 PM 42.5530 -89.3520 93° East 467 537 37,000  Level FlightAware ADS-B
Tue 05:58:40 PM 42.5490 -89.2420 93° East 467 537 37,000  Level FlightAware ADS-B
Tue 05:59:13 PM 42.5460 -89.1470 92° East 467 537 37,000  Level FlightAware ADS-B
Tue 05:59:47 PM 42.5430 -89.0490 92° East 466 536 37,000  Level FlightAware ADS-B
Tue 06:00:17 PM 42.5390 -88.9580 93° East 467 537 37,000  Level FlightAware ADS-B
Tue 06:00:57 PM 42.5350 -88.8460 93° East 468 539 37,000  Level FlightAware ADS-B
Tue 06:01:32 PM 42.5310 -88.7450 93° East 468 539 37,000  Level FlightAware ADS-B
Tue 06:02:06 PM 42.5270 -88.6440 93° East 469 540 37,000  Level FlightAware ADS-B
Tue 06:02:44 PM 42.5230 -88.5340 93° East 469 540 37,000  Level FlightAware ADS-B
Tue 06:03:16 PM 42.5190 -88.4380 93° East 469 540 37,000  Level FlightAware ADS-B
Tue 06:03:53 PM 42.5150 -88.3330 93° East 470 541 37,000  Level FlightAware ADS-B
Tue 06:04:30 PM 42.5100 -88.2240 94° East 472 543 37,000  Level FlightAware ADS-B
Tue 06:05:02 PM 42.5060 -88.1270 93° East 474 545 37,000  Level FlightAware ADS-B
Tue 06:05:38 PM 42.5010 -88.0190 94° East 476 548 37,000  Level FlightAware ADS-B
Tue 06:06:09 PM 42.5000 -87.9270 91° East 477 549 37,000  Level FlightAware ADS-B
Tue 06:06:44 PM 42.5000 -87.8240 90° East 477 549 37,000  Level FlightAware ADS-B
Tue 06:07:22 PM 42.5000 -87.7080 90° East 478 550 37,000  Level FlightAware ADS-B
Tue 06:07:52 PM 42.4990 -87.6180 91° East 478 550 37,000  Level FlightAware ADS-B
Tue 06:08:34 PM 42.4990 -87.4940 90° East 478 550 37,000  Level FlightAware ADS-B
Tue 06:09:06 PM 42.4990 -87.3990 90° East 478 550 37,000  Level FlightAware ADS-B
Tue 06:09:42 PM 42.4980 -87.2940 91° East 478 550 37,000  Level FlightAware ADS-B
Tue 06:10:18 PM 42.4970 -87.1820 91° East 478 550 37,000  Level FlightAware ADS-B
Tue 06:10:50 PM 42.4970 -87.0920 90° East 478 550 37,000  Level FlightAware ADS-B
Tue 06:11:26 PM 42.4960 -86.9890 91° East 477 549 37,000  Level FlightAware ADS-B
Tue 06:12:03 PM 42.4950 -86.8750 91° East 476 548 37,000  Level FlightAware ADS-B
Tue 06:12:38 PM 42.4940 -86.7690 91° East 474 545 37,000  Level FlightAware ADS-B
Tue 06:13:11 PM 42.4930 -86.6720 91° East 475 547 37,000  Level FlightAware ADS-B
Tue 06:13:46 PM 42.4920 -86.5640 91° East 476 548 37,000  Level FlightAware ADS-B
Tue 06:14:23 PM 42.4900 -86.4540 91° East 478 550 37,000  Level FlightAware ADS-B
Tue 06:15:00 PM 42.4890 -86.3460 91° East 479 551 37,000  Level FlightAware ADS-B
Tue 06:15:31 PM 42.4870 -86.2530 92° East 481 554 37,000  Level FlightAware ADS-B
Tue 06:16:06 PM 42.4860 -86.1480 91° East 482 555 37,000  Level FlightAware ADS-B
Tue 06:16:45 PM 42.4840 -86.0290 91° East 484 557 37,000  Level FlightAware ADS-B
Tue 06:17:17 PM 42.4820 -85.9300 92° East 485 558 37,000  Level FlightAware ADS-B
Tue 06:17:52 PM 42.4800 -85.8280 91° East 485 558 37,000  Level FlightAware ADS-B
Tue 06:18:29 PM 42.4780 -85.7130 91° East 485 558 37,000  Level FlightAware ADS-B
Tue 06:19:04 PM 42.4760 -85.6090 91° East 485 558 37,000  Level FlightAware ADS-B
Tue 06:19:34 PM 42.4740 -85.5150 92° East 486 559 37,000  Level FlightAware ADS-B
Tue 06:20:13 PM 42.4710 -85.3970 92° East 487 560 37,000  Level FlightAware ADS-B
Tue 06:20:47 PM 42.4690 -85.2960 92° East 487 560 37,000  Level FlightAware ADS-B
Tue 06:21:23 PM 42.4660 -85.1850 92° East 487 560 37,000  Level FlightAware ADS-B
Tue 06:21:55 PM 42.4640 -85.0890 92° East 487 560 37,000  Level FlightAware ADS-B
Tue 06:22:30 PM 42.4610 -84.9900 92° East 488 562 37,000  Level FlightAware ADS-B
Tue 06:23:05 PM 42.4580 -84.8740 92° East 490 564 37,000  Level FlightAware ADS-B
Tue 06:23:43 PM 42.4550 -84.7610 92° East 491 565 37,000  Level FlightAware ADS-B
Tue 06:24:18 PM 42.4520 -84.6610 92° East 492 566 37,000  Level FlightAware ADS-B
Tue 06:24:55 PM 42.4490 -84.5420 92° East 493 567 37,000  Level FlightAware ADS-B
Tue 06:25:26 PM 42.4460 -84.4450 92° East 494 568 37,000  Level FlightAware ADS-B
Tue 06:26:02 PM 42.4420 -84.3300 93° East 495 570 37,000  Level FlightAware ADS-B
Tue 06:26:39 PM 42.4390 -84.2150 92° East 496 571 37,000  Level FlightAware ADS-B
Tue 06:27:09 PM 42.4350 -84.1220 93° East 496 571 37,000  Level FlightAware ADS-B
Tue 06:27:47 PM 42.4310 -84.0050 93° East 496 571 37,000  Level FlightAware ADS-B
Tue 06:28:22 PM 42.4280 -83.8980 92° East 496 571 37,000  Level FlightAware ADS-B
Tue 06:28:59 PM 42.4240 -83.7880 93° East 496 571 37,000  Level FlightAware ADS-B
Tue 06:29:31 PM 42.4200 -83.6800 93° East 496 571 37,000  Level FlightAware ADS-B
Tue 06:30:07 PM 42.4160 -83.5710 93° East 496 571 37,000  Level FlightAware ADS-B
Tue 06:30:43 PM 42.4110 -83.4580 93° East 496 571 37,000  Level FlightAware ADS-B
Tue 06:31:19 PM 42.4070 -83.3490 93° East 496 571 37,000  Level FlightAware ADS-B
Tue 06:31:52 PM 42.4030 -83.2470 93° East 495 570 37,000  Level FlightAware ADS-B
Tue 06:32:29 PM 42.3980 -83.1320 93° East 494 568 37,000  Level FlightAware ADS-B
Tue 06:33:05 PM 42.3930 -83.0210 93° East 494 568 37,000  Level FlightAware ADS-B
Tue 06:33:39 PM 42.3890 -82.9170 93° East 494 568 37,000  Level FlightAware ADS-B
Tue 06:34:15 PM 42.3840 -82.8070 93° East 494 568 37,000  Level FlightAware ADS-B
Tue 06:34:47 PM 42.3790 -82.7060 94° East 494 568 37,000  Level FlightAware ADS-B
Tue 06:35:23 PM 42.3750 -82.5940 93° East 495 570 37,000  Level FlightAware ADS-B
Tue 06:35:57 PM 42.3710 -82.4910 93° East 495 570 37,000  Level FlightAware ADS-B
Tue 06:36:33 PM 42.3670 -82.3840 93° East 496 571 37,000  Level FlightAware ADS-B
Tue 06:37:09 PM 42.3620 -82.2730 93° East 495 570 37,000  Level FlightAware ADS-B
Tue 06:37:52 PM 42.3560 -82.1350 93° East 495 570 37,000  Level FlightAware ADS-B
Tue 06:38:22 PM 42.3530 -82.0470 93° East 495 570 37,000  Level FlightAware ADS-B
Tue 06:38:59 PM 42.3470 -81.9280 94° East 495 570 37,000  Level FlightAware ADS-B
Tue 06:39:36 PM 42.3420 -81.8130 93° East 495 570 37,000  Level FlightAware ADS-B
Tue 06:40:09 PM 42.3380 -81.7120 93° East 494 568 37,000  Level FlightAware ADS-B
Tue 06:40:47 PM 42.3320 -81.5950 94° East 493 567 37,000  Level FlightAware ADS-B
Tue 06:41:22 PM 42.3270 -81.4890 94° East 492 566 37,000  Level FlightAware ADS-B
Tue 06:41:55 PM 42.3220 -81.3880 94° East 491 565 37,000  Level FlightAware ADS-B
Tue 06:42:32 PM 42.3170 -81.2750 93° East 491 565 37,000  Level FlightAware ADS-B
Tue 06:43:05 PM 42.3120 -81.1760 94° East 491 565 37,000  Level FlightAware ADS-B
Tue 06:43:41 PM 42.3060 -81.0660 94° East 492 566 37,000  Level FlightAware ADS-B
Tue 06:44:15 PM 42.3000 -80.9590 94° East 492 566 37,000  Level FlightAware ADS-B
Tue 06:44:53 PM 42.2940 -80.8460 94° East 492 566 37,000  Level FlightAware ADS-B
Tue 06:45:25 PM 42.2890 -80.7450 94° East 492 566 37,000  Level FlightAware ADS-B
Tue 06:45:59 PM 42.2830 -80.6430 95° East 491 565 37,000  Level FlightAware ADS-B
Tue 06:46:37 PM 42.2770 -80.5280 94° East 491 565 37,000  Level FlightAware ADS-B
Tue 06:47:09 PM 42.2710 -80.4290 95° East 491 565 37,000  Level FlightAware ADS-B
Tue 06:47:46 PM 42.2650 -80.3150 94° East 492 566 37,000  Level FlightAware ADS-B
Tue 06:48:22 PM 42.2580 -80.2060 95° East 492 566 37,000  Level FlightAware ADS-B
Tue 06:48:57 PM 42.2520 -80.0990 94° East 492 566 37,000  Level FlightAware ADS-B
Tue 06:49:30 PM 42.2460 -79.9990 95° East 492 566 37,000  Level FlightAware ADS-B
Tue 06:50:04 PM 42.2390 -79.8950 95° East 491 565 37,000  Level FlightAware ADS-B
Tue 06:50:42 PM 42.2320 -79.7790 95° East 493 567 37,000  Level FlightAware ADS-B
Tue 06:51:11 PM 42.2260 -79.6900 95° East 496 571 37,000  Level FlightAware ADS-B
Tue 06:51:50 PM 42.2190 -79.5700 94° East 499 574 37,000  Level FlightAware ADS-B
Tue 06:52:27 PM 42.2110 -79.4550 95° East 500 575 37,000  Level FlightAware ADS-B
Tue 06:52:58 PM 42.2050 -79.3590 95° East 501 577 37,000  Level FlightAware ADS-B
Tue 06:53:35 PM 42.1970 -79.2440 95° East 501 577 37,000  Level FlightAware ADS-B
Tue 06:54:08 PM 42.1890 -79.1460 96° East 500 575 37,000  Level FlightAware ADS-B
Tue 06:54:40 PM 42.1710 -79.0500 104° East 498 573 37,000  Level FlightAware ADS-B
Tue 06:55:22 PM 42.1400 -78.9220 108° East 497 572 37,000  Level FlightAware ADS-B
Tue 06:55:54 PM 42.1170 -78.8310 109° East 495 570 37,000  Level FlightAware ADS-B
Tue 06:56:30 PM 42.0890 -78.7240 109° East 493 567 37,000  Level FlightAware ADS-B
Tue 06:57:04 PM 42.0640 -78.6260 109° East 490 564 37,000  Level FlightAware ADS-B
Tue 06:57:40 PM 42.0380 -78.5230 109° East 485 558 37,000  Level FlightAware ADS-B
Tue 06:58:16 PM 42.0130 -78.4260 109° East 484 557 37,000  Level FlightAware ADS-B
Tue 06:58:50 PM 41.9880 -78.3270 109° East 486 559 37,000  Level FlightAware ADS-B
Tue 06:59:24 PM 41.9620 -78.2270 109° East 485 558 37,000  Level FlightAware ADS-B
Tue 07:00:00 PM 41.9370 -78.1280 109° East 484 557 37,000  Level FlightAware ADS-B
Tue 07:00:36 PM 41.9100 -78.0260 110° East 483 556 37,000  Level FlightAware ADS-B
Tue 07:01:12 PM 41.8830 -77.9220 109° East 482 555 37,000  Level FlightAware ADS-B
Tue 07:01:44 PM 41.8590 -77.8310 109° East 483 556 37,000  Level FlightAware ADS-B
Tue 07:02:22 PM 41.8310 -77.7240 109° East 482 555 37,000  Level FlightAware ADS-B
Tue 07:02:58 PM 41.8050 -77.6260 110° East 481 554 37,000  Level FlightAware ADS-B
Tue 07:03:30 PM 41.7810 -77.5330 109° East 481 554 37,000  Level FlightAware ADS-B
Tue 07:04:06 PM 41.7540 -77.4320 110° East 482 555 37,000  Level FlightAware ADS-B
Tue 07:04:41 PM 41.7280 -77.3330 109° East 483 556 37,000  Level FlightAware ADS-B
Tue 07:05:15 PM 41.7020 -77.2400 111° Southeast 484 557 37,000  Level FlightAware ADS-B
Tue 07:05:51 PM 41.6760 -77.1400 109° East 485 558 37,000  Level FlightAware ADS-B
Tue 07:06:27 PM 41.6490 -77.0400 110° East 486 559 37,000  Level FlightAware ADS-B
Tue 07:06:59 PM 41.6230 -76.9450 110° East 488 562 37,000  Level FlightAware ADS-B
Tue 07:07:44 PM 41.5900 -76.8240 110° East 490 564 37,000  Level FlightAware ADS-B
Tue 07:08:35 PM 41.5530 -76.6910 110° East 490 564 37,000  Level FlightAware ADS-B
Tue 07:09:20 PM 41.5170 -76.5580 110° East 493 567 37,000  Level FlightAware ADS-B
Tue 07:09:55 PM 41.4860 -76.4470 110° East 493 567 37,000  Level FlightAware ADS-B
Tue 07:10:29 PM 41.4590 -76.3490 110° East 493 567 37,000  Level FlightAware ADS-B
Tue 07:11:02 PM 41.4340 -76.2590 110° East 493 567 37,000 -636 Level FlightAware ADS-B
Tue 07:11:35 PM 41.4080 -76.1640 110° East 493 567 36,300 -2,219 Descending FlightAware ADS-B
Tue 07:12:15 PM 41.3760 -76.0520 111° Southeast 505 581 34,300 -3,280 Descending FlightAware ADS-B
Tue 07:12:50 PM 41.3450 -75.9430 111° Southeast 510 587 32,200 -3,257 Descending FlightAware ADS-B
Tue 07:13:25 PM 41.3160 -75.8430 111° Southeast 506 582 30,500 -3,250 Descending FlightAware ADS-B
Tue 07:14:02 PM 41.2860 -75.7340 110° East 505 581 28,300 -3,826 Descending FlightAware ADS-B
Tue 07:14:34 PM 41.2570 -75.6420 113° Southeast 507 583 26,100 -3,123 Descending FlightAware ADS-B
Tue 07:15:15 PM 41.2210 -75.5320 113° Southeast 484 557 24,500 -2,203 Descending FlightAware ADS-B
Tue 07:15:53 PM 41.1890 -75.4370 114° Southeast 475 547 23,200 -1,200 Descending FlightAware ADS-B
Tue 07:16:30 PM 41.1530 -75.3310 114° Southeast 483 556 23,000 -162 Descending FlightAware ADS-B
Tue 07:17:07 PM 41.1200 -75.2330 114° Southeast 487 560 23,000  Level FlightAware ADS-B
Tue 07:17:46 PM 41.0830 -75.1250 114° Southeast 488 562 23,000  Level FlightAware ADS-B
Tue 07:18:22 PM 41.0500 -75.0270 114° Southeast 486 559 23,000  Level FlightAware ADS-B
Tue 07:18:51 PM 41.0240 -74.9500 114° Southeast 486 559 23,000 -529 Level FlightAware ADS-B
Tue 07:19:30 PM 40.9940 -74.8370 109° East 479 551 22,400 -904 Descending FlightAware ADS-B
Tue 07:20:04 PM 40.9820 -74.7400 99° East 469 540 21,900 -1,014 Descending FlightAware ADS-B
Tue 07:20:41 PM 40.9710 -74.6370 98° East 440 506 21,200 -1,059 Descending FlightAware ADS-B
Tue 07:21:12 PM 40.9620 -74.5600 99° East 416 479 20,700 -1,043 Descending FlightAware ADS-B
Tue 07:21:50 PM 40.9520 -74.4660 98° East 389 448 20,000 -1,054 Descending FlightAware ADS-B
Tue 07:22:26 PM 40.9430 -74.3830 98° East 367 422 19,400 -833 Descending FlightAware ADS-B
Tue 07:23:02 PM 40.9340 -74.3070 99° East 349 402 19,000 -375 Descending FlightAware ADS-B
Tue 07:23:30 PM 40.9273 -74.2458 98° East 350 403 19,000 -167 Level FlightAware ADS-B
Tue 07:24:14 PM 40.9162 -74.1546 99° East 350 403 18,800 -353 Descending FlightAware ADS-B
Tue 07:24:21 PM 40.9127 -74.1398 107° East 348 400 18,700 -1,429 Descending FlightAware ADS-B
Tue 07:24:35 PM 40.9034 -74.1125 114° Southeast 345 397 18,300 -1,500 Descending FlightAware ADS-B
Tue 07:25:05 PM 40.8787 -74.0591 121° Southeast 340 391 17,600 -1,435 Descending FlightAware ADS-B
Tue 07:25:21 PM 40.8663 -74.0300 119° Southeast 337 388 17,200 -1,400 Descending FlightAware ADS-B
Tue 07:25:35 PM 40.8567 -74.0061 118° Southeast 335 386 16,900 -1,467 Descending FlightAware ADS-B (KSNC)
Tue 07:26:06 PM 40.8342 -73.9493 118° Southeast 330 380 16,100 -1,622 Descending FlightAware ADS-B
Tue 07:26:12 PM 40.8361 -73.9542 297° West 329 379 15,900 -1,304 Descending FlightAware ADS-B (KSNC)
Tue 07:26:52 PM 40.8030 -73.8730 118° Southeast 320 368 15,100 -1,378 Descending FlightAware ADS-B
Tue 07:27:26 PM 40.7790 -73.8150 119° Southeast 317 365 14,200 -1,571 Descending FlightAware ADS-B
Tue 07:27:34 PM 40.7755 -73.8063 118° Southeast 317 365 14,000 -1,579 Descending FlightAware ADS-B (KSNC)
Tue 07:28:04 PM 40.7517 -73.7494 119° Southeast 314 361 13,200 -1,258 Descending FlightAware ADS-B (KSNC)
Tue 07:28:36 PM 40.7250 -73.6990 125° Southeast 307 353 12,700 -1,091 Descending FlightAware ADS-B
Tue 07:28:37 PM 40.7239 -73.6968 122° Southeast 308 354 12,600 -176 Descending FlightAware ADS-B (KSNC)
Tue 07:29:10 PM 40.6960 -73.6500 128° Southeast 309 356 12,600 -353 Level FlightAware ADS-B
Tue 07:29:28 PM 40.6795 -73.6211 127° Southeast 306 352 12,300 -1,371 Descending FlightAware ADS-B (KSNC)
Tue 07:30:20 PM 40.6340 -73.5500 130° Southeast 303 349 11,000 -1,500 Descending FlightAware ADS-B
Tue 07:30:28 PM 40.6230 -73.5430 154° Southeast 301 346 10,800 -1,333 Descending FlightAware ADS-B
Tue 07:30:38 PM 40.6092 -73.5346 155° Southeast 304 350 10,600 -1,440 Descending FlightAware ADS-B (KSNC)
Tue 07:31:18 PM 40.5580 -73.5080 158° South 299 344 9,600 -1,527 Descending FlightAware ADS-B
Tue 07:31:33 PM 40.5375 -73.5106 186° South 297 342 9,200 -1,500 Descending FlightAware ADS-B (KSNC)
Tue 07:32:06 PM 40.4980 -73.5360 206° Southwest 287 330 8,400 -1,625 Descending FlightAware ADS-B
Tue 07:32:21 PM 40.4800 -73.5490 209° Southwest 285 328 7,900 -1,610 Descending FlightAware ADS-B
Tue 07:32:47 PM 40.4520 -73.5670 206° Southwest 289 333 7,300 -1,467 Descending FlightAware ADS-B
Tue 07:33:06 PM 40.4260 -73.5840 206° Southwest 289 333 6,800 -1,535 Descending FlightAware ADS-B
Tue 07:33:30 PM 40.3980 -73.6030 207° Southwest 288 331 6,200 -1,364 Descending FlightAware ADS-B
Tue 07:33:50 PM 40.3760 -73.6190 209° Southwest 285 328 5,800 -1,297 Descending FlightAware ADS-B
Tue 07:34:07 PM 40.3550 -73.6350 210° Southwest 285 328 5,400 -1,333 Descending FlightAware ADS-B
Tue 07:34:17 PM 40.3470 -73.6460 226° Southwest 284 327 5,200 -1,200 Descending FlightAware ADS-B
Tue 07:34:27 PM 40.3410 -73.6630 245° Southwest 282 325 5,000 -1,200 Descending FlightAware ADS-B
Tue 07:34:47 PM 40.3350 -73.6950 256° West 278 320 4,600 -1,167 Descending FlightAware ADS-B
Tue 07:35:03 PM 40.3300 -73.7210 256° West 277 319 4,300 -1,167 Descending FlightAware ADS-B
Tue 07:35:23 PM 40.3230 -73.7540 254° West 273 314 3,900 -1,297 Descending FlightAware ADS-B
Tue 07:35:40 PM 40.3170 -73.7820 254° West 273 314 3,500 -1,385 Descending FlightAware ADS-B
Tue 07:36:02 PM 40.3110 -73.8130 256° West 275 316 3,000 -1,227 Descending FlightAware ADS-B
Tue 07:36:24 PM 40.3030 -73.8520 255° West 270 311 2,600 -429 Descending FlightAware ADS-B
Tue 07:36:44 PM 40.2960 -73.8820 253° West 252 290 2,700 207 Climbing FlightAware ADS-B
Tue 07:36:53 PM 40.2950 -73.8960 265° West 244 281 2,700  Level FlightAware ADS-B
Tue 07:37:13 PM 40.2990 -73.9180 283° West 216 249 2,700  Level FlightAware ADS-B
Tue 07:37:19 PM 40.3040 -73.9280 303° West 203 234 2,700  Level FlightAware ADS-B
Tue 07:37:28 PM 40.3090 -73.9330 323° Northwest 185 213 2,700 -333 Level FlightAware ADS-B
Tue 07:37:37 PM 40.3170 -73.9360 344° North 172 198 2,600 -600 Descending FlightAware ADS-B
Tue 07:37:48 PM 40.3250 -73.9380 349° North 167 192 2,500 -727 Descending FlightAware ADS-B
Tue 07:38:10 PM 40.3420 -73.9410 352° North 166 191 2,200 -649 Descending FlightAware ADS-B
Tue 07:38:25 PM 40.3530 -73.9430 352° North 159 183 2,100 -706 Descending FlightAware ADS-B
Tue 07:38:44 PM 40.3670 -73.9450 354° North 157 181 1,800 -909 Descending FlightAware ADS-B
Tue 07:38:58 PM 40.3770 -73.9470 351° North 161 185 1,600 -150 Descending FlightAware ADS-B
Tue 07:39:24 PM 40.3940 -73.9430 10° North 156 180 1,700 122 Climbing FlightAware ADS-B
Tue 07:39:47 PM 40.4110 -73.9360 17° North 157 181 1,700  Level FlightAware ADS-B
Tue 07:40:08 PM 40.4260 -73.9270 25° Northeast 156 180 1,700  Level FlightAware ADS-B
Tue 07:40:28 PM 40.4370 -73.9180 32° Northeast 147 169 1,700  Level FlightAware ADS-B
Tue 07:40:50 PM 40.4490 -73.9080 32° Northeast 146 168 1,700  Level FlightAware ADS-B
Tue 07:41:07 PM 40.4580 -73.9010 31° Northeast 147 169 1,700  Level FlightAware ADS-B
Tue 07:41:33 PM 40.4740 -73.8880 32° Northeast 144 166 1,700  Level FlightAware ADS-B
Tue 07:41:53 PM 40.4850 -73.8800 29° Northeast 145 167 1,700  Level FlightAware ADS-B
Tue 07:42:13 PM 40.4970 -73.8700 32° Northeast 143 165 1,700  Level FlightAware ADS-B
Tue 07:42:37 PM 40.5110 -73.8600 29° Northeast 143 165 1,700  Level FlightAware ADS-B
Tue 07:43:02 PM 40.5250 -73.8480 33° Northeast 143 165 1,700 -120 Level FlightAware ADS-B
Tue 07:43:27 PM 40.5400 -73.8370 29° Northeast 143 165 1,600 -400 Descending FlightAware ADS-B
Tue 07:43:47 PM 40.5520 -73.8280 30° Northeast 148 170 1,400 -769 Descending FlightAware ADS-B
Tue 07:44:06 PM 40.5620 -73.8200 31° Northeast 143 165 1,100 -811 Descending FlightAware ADS-B
Tue 07:44:24 PM 40.5720 -73.8120 31° Northeast 131 151 900 -667 Descending FlightAware ADS-B
Tue 07:44:42 PM 40.5810 -73.8050 31° Northeast 117 135 700 -615 Descending FlightAware ADS-B
Tue 07:45:03 PM 40.5910 -73.7980 28° Northeast 116 133 500 -625 Descending FlightAware ADS-B
Tue 07:45:30 PM 40.6040 -73.7870 33° Northeast 118 136 200 -558 Descending FlightAware ADS-B
Tue 07:45:46 PM 40.6110 -73.7810 33° Northeast 119 137 100 -375 Descending FlightAware ADS-B
Tue 07:46:06 PM 40.6210 -73.7740 28° Northeast 122 140 -300 Descending FlightAware ADS-B
Tue 07:46:26 PM 40.6300 -73.7660 34° Northeast 115 132  Level FlightAware ADS-B

Login

Don't have an account? Register now (free) for customized features, flight alerts, and more!